sensor_id;sensor_type;location;lat;lon;timestamp;pressure;altitude;pressure_sealevel;temperature;humidity
6196;BME280;3131;42.630;23.382;2023-04-30T00:01:06;94124.80;;;9.56;100.00
6196;BME280;3131;42.630;23.382;2023-04-30T00:03:36;94122.15;;;9.51;100.00
6196;BME280;3131;42.630;23.382;2023-04-30T00:06:05;94126.56;;;9.48;100.00
6196;BME280;3131;42.630;23.382;2023-04-30T00:08:34;94126.88;;;9.43;100.00
6196;BME280;3131;42.630;23.382;2023-04-30T00:11:04;94127.94;;;9.46;100.00
6196;BME280;3131;42.630;23.382;2023-04-30T00:13:33;94131.25;;;9.47;100.00
6196;BME280;3131;42.630;23.382;2023-04-30T00:16:03;94131.84;;;9.50;100.00
6196;BME280;3131;42.630;23.382;2023-04-30T00:18:33;94132.17;;;9.46;100.00
6196;BME280;3131;42.630;23.382;2023-04-30T00:21:02;94132.23;;;9.39;100.00
6196;BME280;3131;42.630;23.382;2023-04-30T00:23:31;94132.23;;;9.39;100.00
6196;BME280;3131;42.630;23.382;2023-04-30T00:26:00;94125.84;;;9.27;100.00
6196;BME280;3131;42.630;23.382;2023-04-30T00:28:29;94120.08;;;9.07;100.00
6196;BME280;3131;42.630;23.382;2023-04-30T00:30:59;94124.78;;;8.99;100.00
6196;BME280;3131;42.630;23.382;2023-04-30T00:33:28;94124.86;;;8.84;100.00
6196;BME280;3131;42.630;23.382;2023-04-30T00:35:57;94121.48;;;8.78;100.00
6196;BME280;3131;42.630;23.382;2023-04-30T00:38:26;94126.58;;;8.84;100.00
6196;BME280;3131;42.630;23.382;2023-04-30T00:40:56;94122.61;;;8.87;100.00
6196;BME280;3131;42.630;23.382;2023-04-30T00:43:25;94121.09;;;8.84;100.00
6196;BME280;3131;42.630;23.382;2023-04-30T00:45:54;94125.89;;;8.82;100.00
6196;BME280;3131;42.630;23.382;2023-04-30T00:48:25;94120.88;;;8.75;100.00
6196;BME280;3131;42.630;23.382;2023-04-30T00:50:55;94123.36;;;8.69;100.00
6196;BME280;3131;42.630;23.382;2023-04-30T00:53:24;94116.55;;;8.64;100.00
6196;BME280;3131;42.630;23.382;2023-04-30T00:55:54;94110.81;;;8.62;100.00
6196;BME280;3131;42.630;23.382;2023-04-30T00:58:23;94114.08;;;8.57;100.00
6196;BME280;3131;42.630;23.382;2023-04-30T01:00:53;94120.56;;;8.54;100.00
6196;BME280;3131;42.630;23.382;2023-04-30T01:03:22;94121.21;;;8.50;100.00
6196;BME280;3131;42.630;23.382;2023-04-30T01:05:52;94099.08;;;8.35;100.00
6196;BME280;3131;42.630;23.382;2023-04-30T01:08:21;94117.67;;;8.53;100.00
6196;BME280;3131;42.630;23.382;2023-04-30T01:10:54;94114.47;;;8.51;100.00
6196;BME280;3131;42.630;23.382;2023-04-30T01:13:28;94118.13;;;8.52;100.00
6196;BME280;3131;42.630;23.382;2023-04-30T01:16:01;94116.19;;;8.50;100.00
6196;BME280;3131;42.630;23.382;2023-04-30T01:21:15;94119.91;;;8.57;100.00
6196;BME280;3131;42.630;23.382;2023-04-30T01:23:59;94117.33;;;8.52;100.00
6196;BME280;3131;42.630;23.382;2023-04-30T01:26:34;94122.16;;;8.55;100.00
6196;BME280;3131;42.630;23.382;2023-04-30T01:29:00;94116.48;;;8.58;100.00
6196;BME280;3131;42.630;23.382;2023-04-30T01:31:31;94115.88;;;8.55;100.00
6196;BME280;3131;42.630;23.382;2023-04-30T01:34:02;94114.17;;;8.55;100.00
6196;BME280;3131;42.630;23.382;2023-04-30T01:36:41;94119.50;;;8.51;100.00
6196;BME280;3131;42.630;23.382;2023-04-30T01:39:21;94119.13;;;8.50;100.00
6196;BME280;3131;42.630;23.382;2023-04-30T01:42:00;94115.13;;;8.47;100.00
6196;BME280;3131;42.630;23.382;2023-04-30T01:44:31;94116.46;;;8.46;100.00
6196;BME280;3131;42.630;23.382;2023-04-30T01:47:03;94120.08;;;8.42;100.00
6196;BME280;3131;42.630;23.382;2023-04-30T01:49:39;94122.85;;;8.44;100.00
6196;BME280;3131;42.630;23.382;2023-04-30T01:52:13;94119.88;;;8.45;100.00
6196;BME280;3131;42.630;23.382;2023-04-30T01:54:46;94121.27;;;8.29;100.00
6196;BME280;3131;42.630;23.382;2023-04-30T01:57:20;94119.78;;;8.19;100.00
6196;BME280;3131;42.630;23.382;2023-04-30T01:59:48;94120.12;;;8.20;100.00
6196;BME280;3131;42.630;23.382;2023-04-30T02:02:17;94094.36;;;8.04;100.00
6196;BME280;3131;42.630;23.382;2023-04-30T02:04:46;94115.59;;;8.05;100.00
6196;BME280;3131;42.630;23.382;2023-04-30T02:07:19;94112.61;;;7.93;100.00
6196;BME280;3131;42.630;23.382;2023-04-30T02:09:48;94113.14;;;7.91;100.00
6196;BME280;3131;42.630;23.382;2023-04-30T02:12:18;94117.17;;;7.86;100.00
6196;BME280;3131;42.630;23.382;2023-04-30T02:14:47;94117.11;;;7.81;100.00
6196;BME280;3131;42.630;23.382;2023-04-30T02:17:16;94123.67;;;7.69;100.00
6196;BME280;3131;42.630;23.382;2023-04-30T02:19:46;94120.89;;;7.66;100.00
6196;BME280;3131;42.630;23.382;2023-04-30T02:22:15;94117.50;;;7.67;100.00
6196;BME280;3131;42.630;23.382;2023-04-30T02:24:44;94118.77;;;7.53;100.00
6196;BME280;3131;42.630;23.382;2023-04-30T02:27:13;94114.91;;;7.48;100.00
6196;BME280;3131;42.630;23.382;2023-04-30T02:29:43;94112.05;;;7.47;100.00
6196;BME280;3131;42.630;23.382;2023-04-30T02:32:12;94115.38;;;7.40;100.00
6196;BME280;3131;42.630;23.382;2023-04-30T02:34:42;94113.30;;;7.32;100.00
6196;BME280;3131;42.630;23.382;2023-04-30T02:37:11;94115.02;;;7.32;100.00
6196;BME280;3131;42.630;23.382;2023-04-30T02:42:21;94113.93;;;7.50;100.00
6196;BME280;3131;42.630;23.382;2023-04-30T02:44:50;94114.73;;;7.51;100.00
6196;BME280;3131;42.630;23.382;2023-04-30T02:47:19;94115.28;;;7.56;100.00
6196;BME280;3131;42.630;23.382;2023-04-30T02:49:48;94117.42;;;7.62;100.00
6196;BME280;3131;42.630;23.382;2023-04-30T02:52:17;94123.86;;;7.66;100.00
6196;BME280;3131;42.630;23.382;2023-04-30T02:54:48;94122.31;;;7.71;100.00
6196;BME280;3131;42.630;23.382;2023-04-30T02:57:17;94130.03;;;7.75;100.00
6196;BME280;3131;42.630;23.382;2023-04-30T02:59:46;94132.63;;;7.80;100.00
6196;BME280;3131;42.630;23.382;2023-04-30T03:02:15;94131.89;;;7.85;100.00
6196;BME280;3131;42.630;23.382;2023-04-30T03:04:46;94128.28;;;7.89;100.00
6196;BME280;3131;42.630;23.382;2023-04-30T03:07:16;94132.95;;;7.88;100.00
6196;BME280;3131;42.630;23.382;2023-04-30T03:09:46;94132.77;;;7.91;100.00
6196;BME280;3131;42.630;23.382;2023-04-30T03:12:15;94137.27;;;7.94;100.00
6196;BME280;3131;42.630;23.382;2023-04-30T03:14:45;94138.78;;;7.96;100.00
6196;BME280;3131;42.630;23.382;2023-04-30T03:17:14;94135.81;;;7.97;100.00
6196;BME280;3131;42.630;23.382;2023-04-30T03:19:44;94134.64;;;7.95;100.00
6196;BME280;3131;42.630;23.382;2023-04-30T03:22:13;94140.11;;;7.95;100.00
6196;BME280;3131;42.630;23.382;2023-04-30T03:24:43;94140.57;;;7.94;100.00
6196;BME280;3131;42.630;23.382;2023-04-30T03:27:12;94140.04;;;7.96;100.00
6196;BME280;3131;42.630;23.382;2023-04-30T03:29:43;94137.95;;;7.96;100.00
6196;BME280;3131;42.630;23.382;2023-04-30T03:32:13;94138.33;;;7.97;100.00
6196;BME280;3131;42.630;23.382;2023-04-30T03:34:42;94136.97;;;7.98;100.00
6196;BME280;3131;42.630;23.382;2023-04-30T03:37:11;94137.39;;;8.05;100.00
6196;BME280;3131;42.630;23.382;2023-04-30T03:39:41;94141.50;;;8.13;100.00
6196;BME280;3131;42.630;23.382;2023-04-30T03:42:10;94143.83;;;8.16;100.00
6196;BME280;3131;42.630;23.382;2023-04-30T03:44:39;94156.70;;;8.24;100.00
6196;BME280;3131;42.630;23.382;2023-04-30T03:47:09;94151.49;;;8.27;100.00
6196;BME280;3131;42.630;23.382;2023-04-30T03:49:39;94157.39;;;8.33;100.00
6196;BME280;3131;42.630;23.382;2023-04-30T03:52:08;94159.83;;;8.35;100.00
6196;BME280;3131;42.630;23.382;2023-04-30T03:54:38;94164.47;;;8.34;100.00
6196;BME280;3131;42.630;23.382;2023-04-30T03:57:07;94167.36;;;8.35;100.00
6196;BME280;3131;42.630;23.382;2023-04-30T03:59:38;94166.19;;;8.33;100.00
6196;BME280;3131;42.630;23.382;2023-04-30T04:02:08;94170.14;;;8.37;100.00
6196;BME280;3131;42.630;23.382;2023-04-30T04:04:37;94169.80;;;8.44;100.00
6196;BME280;3131;42.630;23.382;2023-04-30T04:07:07;94168.20;;;8.55;100.00
6196;BME280;3131;42.630;23.382;2023-04-30T04:09:38;94164.39;;;8.63;100.00
6196;BME280;3131;42.630;23.382;2023-04-30T04:12:07;94164.45;;;8.75;100.00
6196;BME280;3131;42.630;23.382;2023-04-30T04:17:18;94169.33;;;9.17;100.00
6196;BME280;3131;42.630;23.382;2023-04-30T04:19:48;94176.67;;;9.20;100.00
6196;BME280;3131;42.630;23.382;2023-04-30T04:22:17;94172.59;;;9.24;100.00
6196;BME280;3131;42.630;23.382;2023-04-30T04:24:46;94173.98;;;9.28;100.00
6196;BME280;3131;42.630;23.382;2023-04-30T04:27:15;94177.08;;;9.39;100.00
6196;BME280;3131;42.630;23.382;2023-04-30T04:32:25;94183.88;;;9.75;100.00
6196;BME280;3131;42.630;23.382;2023-04-30T04:34:55;94187.45;;;9.79;100.00
6196;BME280;3131;42.630;23.382;2023-04-30T04:37:24;94186.49;;;9.87;100.00
6196;BME280;3131;42.630;23.382;2023-04-30T04:39:53;94190.61;;;9.88;100.00
6196;BME280;3131;42.630;23.382;2023-04-30T04:42:22;94192.23;;;9.76;100.00
6196;BME280;3131;42.630;23.382;2023-04-30T04:44:51;94193.00;;;9.84;100.00
6196;BME280;3131;42.630;23.382;2023-04-30T04:47:21;94193.54;;;9.82;100.00
6196;BME280;3131;42.630;23.382;2023-04-30T04:49:50;94196.75;;;9.96;100.00
6196;BME280;3131;42.630;23.382;2023-04-30T04:52:19;94199.86;;;10.00;100.00
6196;BME280;3131;42.630;23.382;2023-04-30T04:54:48;94197.59;;;10.03;100.00
6196;BME280;3131;42.630;23.382;2023-04-30T04:57:18;94209.45;;;10.13;100.00
6196;BME280;3131;42.630;23.382;2023-04-30T04:59:47;94210.95;;;10.29;100.00
6196;BME280;3131;42.630;23.382;2023-04-30T05:02:16;94214.98;;;10.37;100.00
6196;BME280;3131;42.630;23.382;2023-04-30T05:04:45;94209.25;;;10.53;100.00
6196;BME280;3131;42.630;23.382;2023-04-30T05:07:16;94215.59;;;10.64;100.00
6196;BME280;3131;42.630;23.382;2023-04-30T05:09:45;94211.29;;;10.72;100.00
6196;BME280;3131;42.630;23.382;2023-04-30T05:12:15;94214.39;;;10.81;100.00
6196;BME280;3131;42.630;23.382;2023-04-30T05:14:44;94209.69;;;10.77;100.00
6196;BME280;3131;42.630;23.382;2023-04-30T05:17:14;94215.29;;;10.75;100.00
6196;BME280;3131;42.630;23.382;2023-04-30T05:19:43;94216.18;;;10.68;100.00
6196;BME280;3131;42.630;23.382;2023-04-30T05:22:15;94212.30;;;10.69;100.00
6196;BME280;3131;42.630;23.382;2023-04-30T05:24:44;94209.59;;;10.84;100.00
6196;BME280;3131;42.630;23.382;2023-04-30T05:27:14;94213.53;;;10.88;100.00
6196;BME280;3131;42.630;23.382;2023-04-30T05:29:43;94207.97;;;11.12;100.00
6196;BME280;3131;42.630;23.382;2023-04-30T05:32:12;94213.17;;;11.28;100.00
6196;BME280;3131;42.630;23.382;2023-04-30T05:34:41;94209.20;;;11.42;100.00
6196;BME280;3131;42.630;23.382;2023-04-30T05:37:11;94206.79;;;11.63;100.00
6196;BME280;3131;42.630;23.382;2023-04-30T05:39:41;94207.02;;;11.82;100.00
6196;BME280;3131;42.630;23.382;2023-04-30T05:42:10;94206.37;;;11.97;100.00
6196;BME280;3131;42.630;23.382;2023-04-30T05:44:40;94210.16;;;12.03;100.00
6196;BME280;3131;42.630;23.382;2023-04-30T05:47:09;94213.12;;;12.14;100.00
6196;BME280;3131;42.630;23.382;2023-04-30T05:49:38;94215.98;;;12.31;100.00
6196;BME280;3131;42.630;23.382;2023-04-30T05:52:07;94212.33;;;12.19;100.00
6196;BME280;3131;42.630;23.382;2023-04-30T05:54:36;94206.20;;;12.27;100.00
6196;BME280;3131;42.630;23.382;2023-04-30T05:57:05;94210.69;;;12.40;100.00
6196;BME280;3131;42.630;23.382;2023-04-30T05:59:35;94211.89;;;12.63;100.00
6196;BME280;3131;42.630;23.382;2023-04-30T06:02:04;94210.95;;;12.69;100.00
6196;BME280;3131;42.630;23.382;2023-04-30T06:04:33;94214.27;;;12.70;100.00
6196;BME280;3131;42.630;23.382;2023-04-30T06:07:03;94219.41;;;12.80;100.00
6196;BME280;3131;42.630;23.382;2023-04-30T06:09:32;94218.30;;;12.99;100.00
6196;BME280;3131;42.630;23.382;2023-04-30T06:12:01;94220.28;;;12.63;100.00
6196;BME280;3131;42.630;23.382;2023-04-30T06:14:30;94224.55;;;12.57;100.00
6196;BME280;3131;42.630;23.382;2023-04-30T06:17:00;94229.19;;;12.46;100.00
6196;BME280;3131;42.630;23.382;2023-04-30T06:19:29;94221.39;;;12.76;100.00
6196;BME280;3131;42.630;23.382;2023-04-30T06:21:58;94221.77;;;13.19;100.00
6196;BME280;3131;42.630;23.382;2023-04-30T06:24:28;94222.68;;;13.23;100.00
6196;BME280;3131;42.630;23.382;2023-04-30T06:26:57;94231.66;;;13.28;100.00
6196;BME280;3131;42.630;23.382;2023-04-30T06:29:27;94234.96;;;13.70;100.00
6196;BME280;3131;42.630;23.382;2023-04-30T06:31:56;94234.39;;;14.03;100.00
6196;BME280;3131;42.630;23.382;2023-04-30T06:34:25;94229.23;;;14.24;100.00
6196;BME280;3131;42.630;23.382;2023-04-30T06:36:54;94234.16;;;14.31;100.00
6196;BME280;3131;42.630;23.382;2023-04-30T06:39:23;94233.72;;;14.66;100.00
6196;BME280;3131;42.630;23.382;2023-04-30T06:41:53;94235.27;;;15.02;100.00
6196;BME280;3131;42.630;23.382;2023-04-30T06:44:22;94231.23;;;15.28;100.00
6196;BME280;3131;42.630;23.382;2023-04-30T06:46:51;94239.41;;;15.42;100.00
6196;BME280;3131;42.630;23.382;2023-04-30T06:49:20;94239.98;;;15.49;100.00
6196;BME280;3131;42.630;23.382;2023-04-30T06:51:50;94241.80;;;15.43;100.00
6196;BME280;3131;42.630;23.382;2023-04-30T06:54:19;94244.22;;;15.16;100.00
6196;BME280;3131;42.630;23.382;2023-04-30T06:56:49;94250.03;;;15.12;100.00
6196;BME280;3131;42.630;23.382;2023-04-30T06:59:18;94246.34;;;15.40;100.00
6196;BME280;3131;42.630;23.382;2023-04-30T07:01:48;94247.36;;;15.66;100.00
6196;BME280;3131;42.630;23.382;2023-04-30T07:04:17;94247.37;;;15.76;100.00
6196;BME280;3131;42.630;23.382;2023-04-30T07:06:46;94244.84;;;16.13;100.00
6196;BME280;3131;42.630;23.382;2023-04-30T07:09:16;94245.45;;;16.39;100.00
6196;BME280;3131;42.630;23.382;2023-04-30T07:11:45;94245.83;;;16.71;99.98
6196;BME280;3131;42.630;23.382;2023-04-30T07:14:15;94245.19;;;16.74;99.23
6196;BME280;3131;42.630;23.382;2023-04-30T07:16:45;94237.20;;;16.82;99.99
6196;BME280;3131;42.630;23.382;2023-04-30T07:19:14;94243.98;;;16.91;99.83
6196;BME280;3131;42.630;23.382;2023-04-30T07:21:44;94251.69;;;16.82;98.48
6196;BME280;3131;42.630;23.382;2023-04-30T07:24:13;94246.87;;;16.51;100.00
6196;BME280;3131;42.630;23.382;2023-04-30T07:26:43;94243.25;;;16.81;100.00
6196;BME280;3131;42.630;23.382;2023-04-30T07:29:12;94241.47;;;17.13;99.60
6196;BME280;3131;42.630;23.382;2023-04-30T07:31:41;94247.41;;;17.00;98.26
6196;BME280;3131;42.630;23.382;2023-04-30T07:34:11;94245.05;;;17.47;97.63
6196;BME280;3131;42.630;23.382;2023-04-30T07:36:40;94251.72;;;17.66;94.73
6196;BME280;3131;42.630;23.382;2023-04-30T07:39:09;94248.83;;;17.38;96.96
6196;BME280;3131;42.630;23.382;2023-04-30T07:41:39;94247.28;;;17.90;95.04
6196;BME280;3131;42.630;23.382;2023-04-30T07:44:08;94252.08;;;17.71;94.53
6196;BME280;3131;42.630;23.382;2023-04-30T07:46:38;94251.03;;;18.07;92.95
6196;BME280;3131;42.630;23.382;2023-04-30T07:49:08;94252.89;;;17.97;93.45
6196;BME280;3131;42.630;23.382;2023-04-30T07:51:37;94250.16;;;17.73;95.15
6196;BME280;3131;42.630;23.382;2023-04-30T07:54:06;94256.19;;;17.06;99.71
6196;BME280;3131;42.630;23.382;2023-04-30T07:56:36;94253.54;;;17.29;97.55
6196;BME280;3131;42.630;23.382;2023-04-30T07:59:05;94252.74;;;17.29;96.75
6196;BME280;3131;42.630;23.382;2023-04-30T08:01:34;94260.03;;;17.46;96.14
6196;BME280;3131;42.630;23.382;2023-04-30T08:04:04;94240.04;;;17.77;93.26
6196;BME280;3131;42.630;23.382;2023-04-30T08:06:34;94252.48;;;17.80;92.85
6196;BME280;3131;42.630;23.382;2023-04-30T08:09:03;94255.00;;;17.54;94.93
6196;BME280;3131;42.630;23.382;2023-04-30T08:11:32;94260.34;;;17.69;95.51
6196;BME280;3131;42.630;23.382;2023-04-30T08:14:02;94260.95;;;17.84;93.43
6196;BME280;3131;42.630;23.382;2023-04-30T08:16:31;94261.39;;;18.02;88.55
6196;BME280;3131;42.630;23.382;2023-04-30T08:19:01;94261.66;;;18.29;83.52
6196;BME280;3131;42.630;23.382;2023-04-30T08:21:31;94259.56;;;18.63;81.06
6196;BME280;3131;42.630;23.382;2023-04-30T08:24:01;94262.55;;;19.09;78.35
6196;BME280;3131;42.630;23.382;2023-04-30T08:26:30;94264.59;;;18.93;77.57
6196;BME280;3131;42.630;23.382;2023-04-30T08:29:00;94258.23;;;18.97;78.39
6196;BME280;3131;42.630;23.382;2023-04-30T08:31:29;94265.08;;;18.92;75.94
6196;BME280;3131;42.630;23.382;2023-04-30T08:33:58;94259.52;;;19.87;72.02
6196;BME280;3131;42.630;23.382;2023-04-30T08:36:28;94268.16;;;20.41;66.70
6196;BME280;3131;42.630;23.382;2023-04-30T08:41:38;94265.23;;;20.01;69.69
6196;BME280;3131;42.630;23.382;2023-04-30T08:44:11;94272.43;;;18.95;70.53
6196;BME280;3131;42.630;23.382;2023-04-30T08:46:41;94265.86;;;18.42;73.94
6196;BME280;3131;42.630;23.382;2023-04-30T08:49:12;94261.72;;;18.45;74.02
6196;BME280;3131;42.630;23.382;2023-04-30T08:51:41;94248.69;;;18.14;77.86
6196;BME280;3131;42.630;23.382;2023-04-30T08:54:12;94253.83;;;18.69;83.48
6196;BME280;3131;42.630;23.382;2023-04-30T08:56:42;94260.56;;;18.74;76.60
6196;BME280;3131;42.630;23.382;2023-04-30T08:59:12;94260.80;;;18.54;73.57
6196;BME280;3131;42.630;23.382;2023-04-30T09:01:41;94255.08;;;18.61;72.73
6196;BME280;3131;42.630;23.382;2023-04-30T09:04:11;94251.05;;;18.46;74.93
6196;BME280;3131;42.630;23.382;2023-04-30T09:06:40;94254.05;;;18.37;73.21
6196;BME280;3131;42.630;23.382;2023-04-30T09:09:11;94249.83;;;18.66;72.33
6196;BME280;3131;42.630;23.382;2023-04-30T09:11:41;94250.03;;;18.73;71.45
6196;BME280;3131;42.630;23.382;2023-04-30T09:14:10;94247.19;;;18.96;69.66
6196;BME280;3131;42.630;23.382;2023-04-30T09:16:50;94248.55;;;18.66;71.20
6196;BME280;3131;42.630;23.382;2023-04-30T09:19:26;94239.13;;;18.59;70.78
6196;BME280;3131;42.630;23.382;2023-04-30T09:21:56;94230.87;;;19.91;65.41
6196;BME280;3131;42.630;23.382;2023-04-30T09:24:25;94236.23;;;22.90;55.19
6196;BME280;3131;42.630;23.382;2023-04-30T09:26:54;94224.67;;;24.89;45.15
6196;BME280;3131;42.630;23.382;2023-04-30T09:32:18;94220.18;;;27.89;37.88
6196;BME280;3131;42.630;23.382;2023-04-30T09:34:47;94220.95;;;28.42;35.02
6196;BME280;3131;42.630;23.382;2023-04-30T09:37:16;94216.99;;;26.38;38.47
6196;BME280;3131;42.630;23.382;2023-04-30T09:39:49;94217.39;;;28.18;34.92
6196;BME280;3131;42.630;23.382;2023-04-30T09:42:19;94220.80;;;28.86;32.36
6196;BME280;3131;42.630;23.382;2023-04-30T09:44:49;94213.33;;;29.50;31.44
6196;BME280;3131;42.630;23.382;2023-04-30T09:47:20;94214.30;;;27.91;32.25
6196;BME280;3131;42.630;23.382;2023-04-30T09:49:50;94205.33;;;26.45;34.14
6196;BME280;3131;42.630;23.382;2023-04-30T09:52:20;94200.85;;;26.56;33.33
6196;BME280;3131;42.630;23.382;2023-04-30T09:54:49;94200.85;;;26.56;33.33
6196;BME280;3131;42.630;23.382;2023-04-30T09:57:20;94192.97;;;27.89;33.29
6196;BME280;3131;42.630;23.382;2023-04-30T09:59:51;94182.12;;;28.45;32.46
6196;BME280;3131;42.630;23.382;2023-04-30T10:02:21;94189.12;;;28.96;32.49
6196;BME280;3131;42.630;23.382;2023-04-30T10:07:35;94184.27;;;25.50;36.77
6196;BME280;3131;42.630;23.382;2023-04-30T10:10:07;94182.64;;;24.34;38.53
6196;BME280;3131;42.630;23.382;2023-04-30T10:12:41;94178.05;;;23.43;40.25
6196;BME280;3131;42.630;23.382;2023-04-30T10:15:14;94182.67;;;23.26;40.55
6196;BME280;3131;42.630;23.382;2023-04-30T10:17:46;94187.23;;;22.55;42.13
6196;BME280;3131;42.630;23.382;2023-04-30T10:20:17;94179.01;;;24.70;39.74
6196;BME280;3131;42.630;23.382;2023-04-30T10:22:48;94176.35;;;27.53;34.93
6196;BME280;3131;42.630;23.382;2023-04-30T10:25:18;94176.35;;;27.53;34.93
6196;BME280;3131;42.630;23.382;2023-04-30T10:30:36;94172.77;;;25.39;36.89
6196;BME280;3131;42.630;23.382;2023-04-30T10:35:59;94174.38;;;22.55;41.07
6196;BME280;3131;42.630;23.382;2023-04-30T10:38:31;94187.02;;;20.77;45.57
6196;BME280;3131;42.630;23.382;2023-04-30T10:41:01;94207.62;;;20.57;48.58
6196;BME280;3131;42.630;23.382;2023-04-30T10:43:31;94212.02;;;19.92;54.06
6196;BME280;3131;42.630;23.382;2023-04-30T10:46:02;94210.63;;;19.41;59.73
6196;BME280;3131;42.630;23.382;2023-04-30T10:48:33;94235.61;;;18.55;70.42
6196;BME280;3131;42.630;23.382;2023-04-30T10:51:03;94226.19;;;16.22;85.21
6196;BME280;3131;42.630;23.382;2023-04-30T10:53:35;94218.81;;;15.92;99.63
6196;BME280;3131;42.630;23.382;2023-04-30T10:56:04;94214.81;;;15.32;100.00
6196;BME280;3131;42.630;23.382;2023-04-30T10:58:37;94217.86;;;15.46;100.00
6196;BME280;3131;42.630;23.382;2023-04-30T11:01:08;94214.06;;;16.48;100.00
6196;BME280;3131;42.630;23.382;2023-04-30T11:03:39;94209.31;;;19.82;85.03
6196;BME280;3131;42.630;23.382;2023-04-30T11:06:13;94218.64;;;22.83;59.11
6196;BME280;3131;42.630;23.382;2023-04-30T11:08:45;94217.45;;;25.02;47.87
6196;BME280;3131;42.630;23.382;2023-04-30T11:11:19;94216.61;;;27.02;44.08
6196;BME280;3131;42.630;23.382;2023-04-30T11:13:59;94207.56;;;27.59;40.23
6196;BME280;3131;42.630;23.382;2023-04-30T11:19:06;94213.92;;;27.72;40.35
6196;BME280;3131;42.630;23.382;2023-04-30T11:21:41;94211.09;;;27.14;40.92
6196;BME280;3131;42.630;23.382;2023-04-30T11:24:10;94213.44;;;27.72;39.48
6196;BME280;3131;42.630;23.382;2023-04-30T11:27:04;94203.17;;;28.67;38.72
6196;BME280;3131;42.630;23.382;2023-04-30T11:29:34;94205.02;;;30.09;33.23
6196;BME280;3131;42.630;23.382;2023-04-30T11:32:05;94211.78;;;31.82;30.67
6196;BME280;3131;42.630;23.382;2023-04-30T11:34:35;94206.00;;;28.29;33.29
6196;BME280;3131;42.630;23.382;2023-04-30T11:37:06;94206.85;;;27.04;35.55
6196;BME280;3131;42.630;23.382;2023-04-30T11:39:38;94195.61;;;26.69;37.06
6196;BME280;3131;42.630;23.382;2023-04-30T11:42:08;94194.26;;;26.02;37.64
6196;BME280;3131;42.630;23.382;2023-04-30T11:44:38;94197.52;;;24.93;37.89
6196;BME280;3131;42.630;23.382;2023-04-30T11:47:07;94192.41;;;25.27;38.46
6196;BME280;3131;42.630;23.382;2023-04-30T11:49:37;94190.84;;;26.66;36.36
6196;BME280;3131;42.630;23.382;2023-04-30T11:52:06;94191.51;;;26.19;37.35
6196;BME280;3131;42.630;23.382;2023-04-30T11:54:37;94190.80;;;25.65;40.01
6196;BME280;3131;42.630;23.382;2023-04-30T11:57:06;94191.14;;;24.89;43.09
6196;BME280;3131;42.630;23.382;2023-04-30T11:59:42;94192.89;;;26.73;40.68
6196;BME280;3131;42.630;23.382;2023-04-30T12:02:14;94196.91;;;26.69;40.02
6196;BME280;3131;42.630;23.382;2023-04-30T12:04:44;94204.06;;;28.06;37.36
6196;BME280;3131;42.630;23.382;2023-04-30T12:07:15;94199.28;;;29.72;35.10
6196;BME280;3131;42.630;23.382;2023-04-30T12:09:53;94199.52;;;29.49;35.03
6196;BME280;3131;42.630;23.382;2023-04-30T12:12:32;94202.58;;;26.69;39.54
6196;BME280;3131;42.630;23.382;2023-04-30T12:15:14;94197.73;;;26.63;39.60
6196;BME280;3131;42.630;23.382;2023-04-30T12:17:44;94190.67;;;28.85;36.86
6196;BME280;3131;42.630;23.382;2023-04-30T12:20:14;94197.20;;;29.83;35.25
6196;BME280;3131;42.630;23.382;2023-04-30T12:22:45;94190.33;;;29.44;35.80
6196;BME280;3131;42.630;23.382;2023-04-30T12:25:15;94195.23;;;29.10;35.78
6196;BME280;3131;42.630;23.382;2023-04-30T12:27:47;94200.42;;;26.81;38.94
